sensor_id;sensor_type;location;lat;lon;timestamp;P1;durP1;ratioP1;P2;durP2;ratioP2
77602;SDS011;66771;52.434;17.056;2023-04-03T00:00:53;10.60;;;4.30;;
77602;SDS011;66771;52.434;17.056;2023-04-03T00:03:20;9.60;;;3.20;;
77602;SDS011;66771;52.434;17.056;2023-04-03T00:05:47;7.90;;;3.90;;
77602;SDS011;66771;52.434;17.056;2023-04-03T00:08:14;9.90;;;3.70;;
77602;SDS011;66771;52.434;17.056;2023-04-03T00:10:41;8.40;;;3.30;;
77602;SDS011;66771;52.434;17.056;2023-04-03T00:13:08;7.60;;;2.60;;
77602;SDS011;66771;52.434;17.056;2023-04-03T00:15:36;12.40;;;3.00;;
77602;SDS011;66771;52.434;17.056;2023-04-03T00:18:04;13.20;;;2.80;;
77602;SDS011;66771;52.434;17.056;2023-04-03T00:20:32;6.70;;;2.60;;
77602;SDS011;66771;52.434;17.056;2023-04-03T00:23:00;13.30;;;2.70;;
77602;SDS011;66771;52.434;17.056;2023-04-03T00:25:27;6.80;;;2.50;;
77602;SDS011;66771;52.434;17.056;2023-04-03T00:27:54;7.20;;;2.60;;
77602;SDS011;66771;52.434;17.056;2023-04-03T00:30:21;11.10;;;3.10;;
77602;SDS011;66771;52.434;17.056;2023-04-03T00:32:49;6.00;;;3.20;;
77602;SDS011;66771;52.434;17.056;2023-04-03T00:35:17;6.70;;;2.50;;
77602;SDS011;66771;52.434;17.056;2023-04-03T00:37:46;11.60;;;3.50;;
77602;SDS011;66771;52.434;17.056;2023-04-03T00:40:13;8.40;;;3.60;;
77602;SDS011;66771;52.434;17.056;2023-04-03T00:42:42;9.00;;;3.10;;
77602;SDS011;66771;52.434;17.056;2023-04-03T00:47:50;5.20;;;2.50;;
77602;SDS011;66771;52.434;17.056;2023-04-03T00:50:17;9.30;;;2.80;;
77602;SDS011;66771;52.434;17.056;2023-04-03T00:52:45;4.30;;;2.20;;
77602;SDS011;66771;52.434;17.056;2023-04-03T00:55:14;9.20;;;2.20;;
77602;SDS011;66771;52.434;17.056;2023-04-03T00:57:42;6.80;;;2.20;;
77602;SDS011;66771;52.434;17.056;2023-04-03T01:00:12;7.20;;;2.90;;
77602;SDS011;66771;52.434;17.056;2023-04-03T01:02:43;8.10;;;2.80;;
77602;SDS011;66771;52.434;17.056;2023-04-03T01:05:13;5.40;;;2.40;;
77602;SDS011;66771;52.434;17.056;2023-04-03T01:07:43;6.50;;;1.90;;
77602;SDS011;66771;52.434;17.056;2023-04-03T01:10:12;6.60;;;2.30;;
77602;SDS011;66771;52.434;17.056;2023-04-03T01:12:43;8.90;;;2.40;;
77602;SDS011;66771;52.434;17.056;2023-04-03T01:15:16;13.80;;;2.80;;
77602;SDS011;66771;52.434;17.056;2023-04-03T01:17:50;10.30;;;2.20;;
77602;SDS011;66771;52.434;17.056;2023-04-03T01:28:04;4.90;;;2.20;;
77602;SDS011;66771;52.434;17.056;2023-04-03T01:30:45;7.80;;;2.20;;
77602;SDS011;66771;52.434;17.056;2023-04-03T01:33:17;6.70;;;2.30;;
77602;SDS011;66771;52.434;17.056;2023-04-03T01:35:44;8.90;;;2.50;;
77602;SDS011;66771;52.434;17.056;2023-04-03T01:38:12;5.20;;;1.90;;
77602;SDS011;66771;52.434;17.056;2023-04-03T01:40:38;9.40;;;2.80;;
77602;SDS011;66771;52.434;17.056;2023-04-03T01:43:05;8.00;;;1.90;;
77602;SDS011;66771;52.434;17.056;2023-04-03T01:45:32;6.30;;;2.40;;
77602;SDS011;66771;52.434;17.056;2023-04-03T01:47:59;7.40;;;2.40;;
77602;SDS011;66771;52.434;17.056;2023-04-03T01:50:26;7.30;;;2.10;;
77602;SDS011;66771;52.434;17.056;2023-04-03T01:52:53;5.80;;;2.40;;
77602;SDS011;66771;52.434;17.056;2023-04-03T01:55:20;7.40;;;2.30;;
77602;SDS011;66771;52.434;17.056;2023-04-03T01:57:47;6.20;;;2.60;;
77602;SDS011;66771;52.434;17.056;2023-04-03T02:00:14;18.10;;;6.20;;
77602;SDS011;66771;52.434;17.056;2023-04-03T02:02:42;11.20;;;3.30;;
77602;SDS011;66771;52.434;17.056;2023-04-03T02:05:10;4.40;;;3.00;;
77602;SDS011;66771;52.434;17.056;2023-04-03T02:07:40;8.40;;;2.40;;
77602;SDS011;66771;52.434;17.056;2023-04-03T02:10:08;8.00;;;2.50;;
77602;SDS011;66771;52.434;17.056;2023-04-03T02:12:35;3.70;;;2.10;;
77602;SDS011;66771;52.434;17.056;2023-04-03T02:15:02;9.30;;;2.20;;
77602;SDS011;66771;52.434;17.056;2023-04-03T02:17:29;4.80;;;1.80;;
77602;SDS011;66771;52.434;17.056;2023-04-03T02:19:56;4.50;;;1.90;;
77602;SDS011;66771;52.434;17.056;2023-04-03T02:22:23;10.40;;;2.50;;
77602;SDS011;66771;52.434;17.056;2023-04-03T02:24:51;6.50;;;2.90;;
77602;SDS011;66771;52.434;17.056;2023-04-03T02:27:18;8.20;;;2.60;;
77602;SDS011;66771;52.434;17.056;2023-04-03T02:29:45;5.70;;;2.50;;
77602;SDS011;66771;52.434;17.056;2023-04-03T02:32:12;5.30;;;2.40;;
77602;SDS011;66771;52.434;17.056;2023-04-03T02:34:39;6.80;;;2.20;;
77602;SDS011;66771;52.434;17.056;2023-04-03T02:37:07;5.40;;;2.60;;
77602;SDS011;66771;52.434;17.056;2023-04-03T02:39:34;6.00;;;2.30;;
77602;SDS011;66771;52.434;17.056;2023-04-03T02:42:01;6.00;;;2.40;;
77602;SDS011;66771;52.434;17.056;2023-04-03T02:44:28;6.60;;;2.40;;
77602;SDS011;66771;52.434;17.056;2023-04-03T02:46:56;7.80;;;2.20;;
77602;SDS011;66771;52.434;17.056;2023-04-03T02:49:23;5.70;;;2.10;;
77602;SDS011;66771;52.434;17.056;2023-04-03T02:51:50;7.00;;;2.10;;
77602;SDS011;66771;52.434;17.056;2023-04-03T02:54:17;6.60;;;2.90;;
77602;SDS011;66771;52.434;17.056;2023-04-03T02:56:48;8.80;;;2.20;;
77602;SDS011;66771;52.434;17.056;2023-04-03T02:59:18;8.70;;;2.20;;
77602;SDS011;66771;52.434;17.056;2023-04-03T03:01:45;6.00;;;2.10;;
77602;SDS011;66771;52.434;17.056;2023-04-03T03:04:12;7.10;;;2.70;;
77602;SDS011;66771;52.434;17.056;2023-04-03T03:06:39;9.70;;;3.10;;
77602;SDS011;66771;52.434;17.056;2023-04-03T03:09:06;6.50;;;2.70;;
77602;SDS011;66771;52.434;17.056;2023-04-03T03:11:34;4.70;;;2.40;;
77602;SDS011;66771;52.434;17.056;2023-04-03T03:14:02;7.20;;;2.30;;
77602;SDS011;66771;52.434;17.056;2023-04-03T03:16:29;7.20;;;2.20;;
77602;SDS011;66771;52.434;17.056;2023-04-03T03:18:56;7.20;;;2.00;;
77602;SDS011;66771;52.434;17.056;2023-04-03T03:21:23;8.70;;;2.40;;
77602;SDS011;66771;52.434;17.056;2023-04-03T03:23:50;4.30;;;2.30;;
77602;SDS011;66771;52.434;17.056;2023-04-03T03:26:17;13.20;;;3.20;;
77602;SDS011;66771;52.434;17.056;2023-04-03T03:28:44;6.00;;;2.60;;
77602;SDS011;66771;52.434;17.056;2023-04-03T03:31:11;5.60;;;2.30;;
77602;SDS011;66771;52.434;17.056;2023-04-03T03:33:39;8.80;;;2.20;;
77602;SDS011;66771;52.434;17.056;2023-04-03T03:36:06;4.10;;;1.50;;
77602;SDS011;66771;52.434;17.056;2023-04-03T03:38:33;7.50;;;2.30;;
77602;SDS011;66771;52.434;17.056;2023-04-03T03:41:01;7.20;;;2.40;;
77602;SDS011;66771;52.434;17.056;2023-04-03T03:43:28;8.80;;;2.70;;
77602;SDS011;66771;52.434;17.056;2023-04-03T03:45:56;5.10;;;2.60;;
77602;SDS011;66771;52.434;17.056;2023-04-03T03:48:23;6.90;;;2.90;;
77602;SDS011;66771;52.434;17.056;2023-04-03T03:50:50;11.40;;;2.70;;
77602;SDS011;66771;52.434;17.056;2023-04-03T03:53:21;7.30;;;2.10;;
77602;SDS011;66771;52.434;17.056;2023-04-03T03:55:48;6.80;;;2.20;;
77602;SDS011;66771;52.434;17.056;2023-04-03T03:58:15;9.60;;;2.20;;
77602;SDS011;66771;52.434;17.056;2023-04-03T04:00:42;9.20;;;2.40;;
77602;SDS011;66771;52.434;17.056;2023-04-03T04:03:09;5.90;;;2.60;;
77602;SDS011;66771;52.434;17.056;2023-04-03T04:05:36;8.80;;;2.30;;
77602;SDS011;66771;52.434;17.056;2023-04-03T04:08:03;6.10;;;2.30;;
77602;SDS011;66771;52.434;17.056;2023-04-03T04:10:30;7.80;;;1.90;;
77602;SDS011;66771;52.434;17.056;2023-04-03T04:12:57;9.40;;;3.70;;
77602;SDS011;66771;52.434;17.056;2023-04-03T04:15:26;7.80;;;2.50;;
77602;SDS011;66771;52.434;17.056;2023-04-03T04:17:53;10.70;;;2.20;;
77602;SDS011;66771;52.434;17.056;2023-04-03T04:20:24;8.60;;;2.30;;
77602;SDS011;66771;52.434;17.056;2023-04-03T04:22:51;4.60;;;2.40;;
77602;SDS011;66771;52.434;17.056;2023-04-03T04:25:18;4.90;;;2.00;;
77602;SDS011;66771;52.434;17.056;2023-04-03T04:27:45;5.20;;;1.70;;
77602;SDS011;66771;52.434;17.056;2023-04-03T04:30:14;8.00;;;2.00;;
77602;SDS011;66771;52.434;17.056;2023-04-03T04:32:41;7.80;;;2.00;;
77602;SDS011;66771;52.434;17.056;2023-04-03T04:35:08;5.60;;;2.30;;
77602;SDS011;66771;52.434;17.056;2023-04-03T04:37:37;4.50;;;1.90;;
77602;SDS011;66771;52.434;17.056;2023-04-03T04:40:04;9.40;;;2.50;;
77602;SDS011;66771;52.434;17.056;2023-04-03T04:42:31;8.80;;;3.10;;
77602;SDS011;66771;52.434;17.056;2023-04-03T04:45:00;5.30;;;2.10;;
77602;SDS011;66771;52.434;17.056;2023-04-03T04:47:28;7.90;;;2.50;;
77602;SDS011;66771;52.434;17.056;2023-04-03T04:49:55;12.50;;;3.00;;
77602;SDS011;66771;52.434;17.056;2023-04-03T04:52:25;6.90;;;2.80;;
77602;SDS011;66771;52.434;17.056;2023-04-03T04:54:52;10.70;;;2.70;;
77602;SDS011;66771;52.434;17.056;2023-04-03T04:57:19;7.20;;;2.90;;
77602;SDS011;66771;52.434;17.056;2023-04-03T04:59:46;11.20;;;2.50;;
77602;SDS011;66771;52.434;17.056;2023-04-03T05:02:13;7.30;;;2.40;;
77602;SDS011;66771;52.434;17.056;2023-04-03T05:04:42;9.30;;;2.30;;
77602;SDS011;66771;52.434;17.056;2023-04-03T05:07:12;5.00;;;1.70;;
77602;SDS011;66771;52.434;17.056;2023-04-03T05:09:39;4.10;;;1.70;;
77602;SDS011;66771;52.434;17.056;2023-04-03T05:12:08;9.30;;;2.00;;
77602;SDS011;66771;52.434;17.056;2023-04-03T05:14:40;8.40;;;2.30;;
77602;SDS011;66771;52.434;17.056;2023-04-03T05:17:08;6.40;;;2.10;;
77602;SDS011;66771;52.434;17.056;2023-04-03T05:19:36;5.20;;;2.20;;
77602;SDS011;66771;52.434;17.056;2023-04-03T05:22:03;8.40;;;3.20;;
77602;SDS011;66771;52.434;17.056;2023-04-03T05:24:31;8.70;;;2.50;;
77602;SDS011;66771;52.434;17.056;2023-04-03T05:26:58;5.30;;;2.10;;
77602;SDS011;66771;52.434;17.056;2023-04-03T05:29:26;8.60;;;2.20;;
77602;SDS011;66771;52.434;17.056;2023-04-03T05:31:53;5.30;;;2.00;;
77602;SDS011;66771;52.434;17.056;2023-04-03T05:34:20;6.20;;;2.00;;
77602;SDS011;66771;52.434;17.056;2023-04-03T05:36:48;5.30;;;2.10;;
77602;SDS011;66771;52.434;17.056;2023-04-03T05:39:15;8.50;;;2.30;;
77602;SDS011;66771;52.434;17.056;2023-04-03T05:41:43;5.00;;;2.10;;
77602;SDS011;66771;52.434;17.056;2023-04-03T05:44:10;5.00;;;2.30;;
77602;SDS011;66771;52.434;17.056;2023-04-03T05:46:37;4.00;;;1.90;;
77602;SDS011;66771;52.434;17.056;2023-04-03T05:49:06;6.50;;;2.20;;
77602;SDS011;66771;52.434;17.056;2023-04-03T05:51:35;6.80;;;2.20;;
77602;SDS011;66771;52.434;17.056;2023-04-03T05:54:29;10.10;;;2.60;;
77602;SDS011;66771;52.434;17.056;2023-04-03T05:57:22;6.40;;;2.30;;
77602;SDS011;66771;52.434;17.056;2023-04-03T05:59:49;9.90;;;3.10;;
77602;SDS011;66771;52.434;17.056;2023-04-03T06:02:18;6.20;;;3.00;;
77602;SDS011;66771;52.434;17.056;2023-04-03T06:04:47;12.00;;;2.80;;
77602;SDS011;66771;52.434;17.056;2023-04-03T06:07:21;9.20;;;3.40;;
77602;SDS011;66771;52.434;17.056;2023-04-03T06:09:50;7.40;;;2.10;;
77602;SDS011;66771;52.434;17.056;2023-04-03T06:12:20;5.80;;;2.70;;
77602;SDS011;66771;52.434;17.056;2023-04-03T06:14:47;5.40;;;2.50;;
77602;SDS011;66771;52.434;17.056;2023-04-03T06:17:15;4.40;;;2.40;;
77602;SDS011;66771;52.434;17.056;2023-04-03T06:19:44;8.20;;;2.60;;
77602;SDS011;66771;52.434;17.056;2023-04-03T06:22:12;4.20;;;2.10;;
77602;SDS011;66771;52.434;17.056;2023-04-03T06:24:40;6.60;;;2.30;;
77602;SDS011;66771;52.434;17.056;2023-04-03T06:27:07;5.10;;;2.20;;
77602;SDS011;66771;52.434;17.056;2023-04-03T06:29:33;5.10;;;2.90;;
77602;SDS011;66771;52.434;17.056;2023-04-03T06:32:00;5.50;;;3.20;;
77602;SDS011;66771;52.434;17.056;2023-04-03T06:34:27;8.50;;;2.30;;
77602;SDS011;66771;52.434;17.056;2023-04-03T06:36:54;7.50;;;2.00;;
77602;SDS011;66771;52.434;17.056;2023-04-03T06:39:22;4.40;;;2.10;;
77602;SDS011;66771;52.434;17.056;2023-04-03T06:41:49;3.90;;;2.10;;
77602;SDS011;66771;52.434;17.056;2023-04-03T06:44:17;8.30;;;2.20;;
77602;SDS011;66771;52.434;17.056;2023-04-03T06:46:44;5.90;;;2.40;;
77602;SDS011;66771;52.434;17.056;2023-04-03T06:49:12;6.30;;;1.90;;
77602;SDS011;66771;52.434;17.056;2023-04-03T06:51:40;2.40;;;1.50;;
77602;SDS011;66771;52.434;17.056;2023-04-03T06:54:07;5.50;;;1.70;;
77602;SDS011;66771;52.434;17.056;2023-04-03T06:56:34;7.60;;;2.20;;
77602;SDS011;66771;52.434;17.056;2023-04-03T06:59:02;2.90;;;1.70;;
77602;SDS011;66771;52.434;17.056;2023-04-03T07:01:29;5.60;;;1.90;;
77602;SDS011;66771;52.434;17.056;2023-04-03T07:03:56;3.20;;;1.70;;
77602;SDS011;66771;52.434;17.056;2023-04-03T10:12:42;3.50;;;1.70;;
77602;SDS011;66771;52.434;17.056;2023-04-03T10:15:12;2.00;;;1.70;;
77602;SDS011;66771;52.434;17.056;2023-04-03T10:25:29;2.70;;;1.90;;
77602;SDS011;66771;52.434;17.056;2023-04-03T10:30:59;4.80;;;1.60;;
77602;SDS011;66771;52.434;17.056;2023-04-03T10:41:47;4.00;;;2.40;;
77602;SDS011;66771;52.434;17.056;2023-04-03T10:44:26;3.00;;;1.90;;
77602;SDS011;66771;52.434;17.056;2023-04-03T10:47:05;8.10;;;2.40;;
77602;SDS011;66771;52.434;17.056;2023-04-03T10:55:34;6.00;;;2.50;;
77602;SDS011;66771;52.434;17.056;2023-04-03T10:58:18;3.20;;;1.90;;
77602;SDS011;66771;52.434;17.056;2023-04-03T11:00:52;3.70;;;1.70;;
77602;SDS011;66771;52.434;17.056;2023-04-03T11:05:54;3.50;;;2.10;;
77602;SDS011;66771;52.434;17.056;2023-04-03T11:10:48;5.00;;;2.10;;
77602;SDS011;66771;52.434;17.056;2023-04-03T11:15:49;2.50;;;1.70;;
77602;SDS011;66771;52.434;17.056;2023-04-03T11:18:31;4.70;;;2.20;;
77602;SDS011;66771;52.434;17.056;2023-04-03T11:23:52;2.60;;;2.10;;
77602;SDS011;66771;52.434;17.056;2023-04-03T11:26:22;5.20;;;2.20;;
77602;SDS011;66771;52.434;17.056;2023-04-03T11:29:04;5.80;;;1.60;;
77602;SDS011;66771;52.434;17.056;2023-04-03T11:37:02;4.20;;;1.90;;
77602;SDS011;66771;52.434;17.056;2023-04-03T11:39:39;6.40;;;2.20;;
77602;SDS011;66771;52.434;17.056;2023-04-03T11:44:41;3.60;;;2.10;;
77602;SDS011;66771;52.434;17.056;2023-04-03T11:47:11;4.80;;;2.50;;
77602;SDS011;66771;52.434;17.056;2023-04-03T12:05:55;3.90;;;2.30;;
77602;SDS011;66771;52.434;17.056;2023-04-03T12:13:38;2.50;;;1.80;;
77602;SDS011;66771;52.434;17.056;2023-04-03T12:16:24;2.50;;;1.90;;
77602;SDS011;66771;52.434;17.056;2023-04-03T12:29:02;4.60;;;2.50;;
77602;SDS011;66771;52.434;17.056;2023-04-03T12:32:04;4.00;;;1.80;;
77602;SDS011;66771;52.434;17.056;2023-04-03T12:34:38;3.80;;;2.30;;
77602;SDS011;66771;52.434;17.056;2023-04-03T12:37:15;3.40;;;1.90;;
77602;SDS011;66771;52.434;17.056;2023-04-03T12:40:09;3.80;;;2.30;;
77602;SDS011;66771;52.434;17.056;2023-04-03T12:42:47;4.50;;;2.50;;
77602;SDS011;66771;52.434;17.056;2023-04-03T12:45:27;4.10;;;2.30;;
77602;SDS011;66771;52.434;17.056;2023-04-03T12:47:54;4.60;;;2.00;;
77602;SDS011;66771;52.434;17.056;2023-04-03T12:50:28;3.50;;;1.90;;
77602;SDS011;66771;52.434;17.056;2023-04-03T12:55:56;4.30;;;1.70;;
77602;SDS011;66771;52.434;17.056;2023-04-03T12:58:27;3.50;;;2.00;;
77602;SDS011;66771;52.434;17.056;2023-04-03T13:01:00;3.00;;;1.90;;
77602;SDS011;66771;52.434;17.056;2023-04-03T13:03:37;3.60;;;1.80;;
77602;SDS011;66771;52.434;17.056;2023-04-03T13:06:14;3.10;;;1.80;;
77602;SDS011;66771;52.434;17.056;2023-04-03T13:08:48;4.50;;;1.80;;
77602;SDS011;66771;52.434;17.056;2023-04-03T13:11:16;3.50;;;1.90;;
77602;SDS011;66771;52.434;17.056;2023-04-03T13:13:59;4.70;;;2.20;;
77602;SDS011;66771;52.434;17.056;2023-04-03T13:16:31;3.70;;;2.00;;
77602;SDS011;66771;52.434;17.056;2023-04-03T13:18:59;2.50;;;1.90;;
77602;SDS011;66771;52.434;17.056;2023-04-03T13:21:26;3.40;;;1.80;;
77602;SDS011;66771;52.434;17.056;2023-04-03T13:23:55;2.70;;;1.70;;
77602;SDS011;66771;52.434;17.056;2023-04-03T13:26:26;5.00;;;2.30;;
77602;SDS011;66771;52.434;17.056;2023-04-03T13:29:02;6.50;;;2.30;;
77602;SDS011;66771;52.434;17.056;2023-04-03T13:31:35;4.60;;;1.80;;
77602;SDS011;66771;52.434;17.056;2023-04-03T13:34:20;4.30;;;2.10;;
77602;SDS011;66771;52.434;17.056;2023-04-03T13:36:56;3.10;;;1.60;;
77602;SDS011;66771;52.434;17.056;2023-04-03T13:39:26;2.10;;;1.60;;
77602;SDS011;66771;52.434;17.056;2023-04-03T13:41:57;2.60;;;1.90;;
77602;SDS011;66771;52.434;17.056;2023-04-03T13:44:29;7.30;;;2.10;;
77602;SDS011;66771;52.434;17.056;2023-04-03T13:46:57;4.70;;;2.00;;
77602;SDS011;66771;52.434;17.056;2023-04-03T13:51:52;4.90;;;1.70;;
77602;SDS011;66771;52.434;17.056;2023-04-03T13:54:20;3.30;;;1.90;;
77602;SDS011;66771;52.434;17.056;2023-04-03T13:56:54;4.40;;;1.80;;
77602;SDS011;66771;52.434;17.056;2023-04-03T13:59:40;2.70;;;1.80;;
77602;SDS011;66771;52.434;17.056;2023-04-03T14:04:45;5.10;;;1.80;;
77602;SDS011;66771;52.434;17.056;2023-04-03T14:07:16;4.70;;;1.70;;
77602;SDS011;66771;52.434;17.056;2023-04-03T14:09:43;2.90;;;1.50;;
77602;SDS011;66771;52.434;17.056;2023-04-03T14:12:23;4.30;;;1.70;;
77602;SDS011;66771;52.434;17.056;2023-04-03T14:14:57;2.80;;;1.90;;
77602;SDS011;66771;52.434;17.056;2023-04-03T14:17:26;3.10;;;1.60;;
77602;SDS011;66771;52.434;17.056;2023-04-03T14:20:02;3.40;;;1.50;;
77602;SDS011;66771;52.434;17.056;2023-04-03T14:22:32;2.70;;;1.50;;
77602;SDS011;66771;52.434;17.056;2023-04-03T14:25:00;4.30;;;2.30;;
77602;SDS011;66771;52.434;17.056;2023-04-03T14:29:54;3.40;;;2.10;;
77602;SDS011;66771;52.434;17.056;2023-04-03T14:32:22;2.50;;;2.30;;
77602;SDS011;66771;52.434;17.056;2023-04-03T14:34:50;2.70;;;2.20;;
77602;SDS011;66771;52.434;17.056;2023-04-03T14:37:20;2.30;;;1.40;;
77602;SDS011;66771;52.434;17.056;2023-04-03T14:39:51;2.80;;;1.70;;
77602;SDS011;66771;52.434;17.056;2023-04-03T14:42:20;3.90;;;1.60;;
77602;SDS011;66771;52.434;17.056;2023-04-03T14:44:48;1.90;;;1.30;;
77602;SDS011;66771;52.434;17.056;2023-04-03T14:47:17;5.10;;;1.70;;
77602;SDS011;66771;52.434;17.056;2023-04-03T14:49:46;4.70;;;1.90;;
77602;SDS011;66771;52.434;17.056;2023-04-03T14:52:26;1.90;;;1.40;;
77602;SDS011;66771;52.434;17.056;2023-04-03T14:54:55;4.10;;;1.90;;
77602;SDS011;66771;52.434;17.056;2023-04-03T14:57:23;2.50;;;1.70;;
77602;SDS011;66771;52.434;17.056;2023-04-03T14:59:50;6.30;;;4.10;;
77602;SDS011;66771;52.434;17.056;2023-04-03T15:02:33;2.60;;;2.40;;
77602;SDS011;66771;52.434;17.056;2023-04-03T15:05:02;2.40;;;1.90;;
77602;SDS011;66771;52.434;17.056;2023-04-03T15:07:37;2.40;;;2.10;;
77602;SDS011;66771;52.434;17.056;2023-04-03T15:10:27;3.30;;;1.60;;
77602;SDS011;66771;52.434;17.056;2023-04-03T15:12:53;2.90;;;1.70;;
77602;SDS011;66771;52.434;17.056;2023-04-03T15:15:21;2.40;;;1.40;;
77602;SDS011;66771;52.434;17.056;2023-04-03T15:17:52;4.30;;;1.70;;
77602;SDS011;66771;52.434;17.056;2023-04-03T15:20:21;1.70;;;1.30;;
77602;SDS011;66771;52.434;17.056;2023-04-03T15:22:49;2.10;;;1.20;;
77602;SDS011;66771;52.434;17.056;2023-04-03T15:25:15;6.50;;;1.70;;
77602;SDS011;66771;52.434;17.056;2023-04-03T15:27:42;3.80;;;1.70;;
77602;SDS011;66771;52.434;17.056;2023-04-03T15:30:11;2.60;;;1.50;;
77602;SDS011;66771;52.434;17.056;2023-04-03T15:32:40;4.60;;;1.70;;
77602;SDS011;66771;52.434;17.056;2023-04-03T15:35:06;2.50;;;1.60;;
77602;SDS011;66771;52.434;17.056;2023-04-03T15:37:32;3.80;;;2.20;;
77602;SDS011;66771;52.434;17.056;2023-04-03T15:39:58;3.20;;;1.80;;
77602;SDS011;66771;52.434;17.056;2023-04-03T15:42:24;2.90;;;2.10;;
77602;SDS011;66771;52.434;17.056;2023-04-03T15:44:51;3.60;;;2.10;;
77602;SDS011;66771;52.434;17.056;2023-04-03T15:47:17;3.30;;;1.80;;
77602;SDS011;66771;52.434;17.056;2023-04-03T15:49:43;2.40;;;1.40;;
77602;SDS011;66771;52.434;17.056;2023-04-03T15:52:09;4.70;;;2.40;;
77602;SDS011;66771;52.434;17.056;2023-04-03T15:54:35;3.00;;;1.90;;
77602;SDS011;66771;52.434;17.056;2023-04-03T15:57:01;7.10;;;1.90;;
77602;SDS011;66771;52.434;17.056;2023-04-03T15:59:27;6.20;;;3.00;;
77602;SDS011;66771;52.434;17.056;2023-04-03T16:01:56;3.90;;;2.20;;
77602;SDS011;66771;52.434;17.056;2023-04-03T16:04:22;3.70;;;2.30;;
77602;SDS011;66771;52.434;17.056;2023-04-03T16:06:49;3.40;;;2.00;;
77602;SDS011;66771;52.434;17.056;2023-04-03T16:09:15;2.90;;;1.90;;
77602;SDS011;66771;52.434;17.056;2023-04-03T16:11:42;3.90;;;2.00;;
77602;SDS011;66771;52.434;17.056;2023-04-03T16:14:09;3.50;;;1.80;;
77602;SDS011;66771;52.434;17.056;2023-04-03T16:16:35;4.50;;;1.80;;
77602;SDS011;66771;52.434;17.056;2023-04-03T16:19:02;3.00;;;1.90;;
77602;SDS011;66771;52.434;17.056;2023-04-03T16:21:29;2.80;;;1.80;;
77602;SDS011;66771;52.434;17.056;2023-04-03T16:23:58;3.80;;;1.90;;
77602;SDS011;66771;52.434;17.056;2023-04-03T16:26:26;3.20;;;1.60;;
77602;SDS011;66771;52.434;17.056;2023-04-03T16:28:52;2.10;;;1.70;;
77602;SDS011;66771;52.434;17.056;2023-04-03T16:31:20;4.40;;;1.90;;
77602;SDS011;66771;52.434;17.056;2023-04-03T16:33:47;2.50;;;1.40;;
77602;SDS011;66771;52.434;17.056;2023-04-03T16:36:13;3.90;;;1.90;;
77602;SDS011;66771;52.434;17.056;2023-04-03T16:38:39;2.70;;;1.50;;
77602;SDS011;66771;52.434;17.056;2023-04-03T16:41:05;7.80;;;3.00;;
77602;SDS011;66771;52.434;17.056;2023-04-03T16:43:32;6.00;;;1.70;;
77602;SDS011;66771;52.434;17.056;2023-04-03T16:45:59;5.50;;;2.10;;
77602;SDS011;66771;52.434;17.056;2023-04-03T16:48:27;4.20;;;2.10;;
77602;SDS011;66771;52.434;17.056;2023-04-03T16:50:55;4.80;;;2.30;;
77602;SDS011;66771;52.434;17.056;2023-04-03T16:53:21;7.00;;;4.10;;
77602;SDS011;66771;52.434;17.056;2023-04-03T16:55:48;12.10;;;6.60;;
77602;SDS011;66771;52.434;17.056;2023-04-03T16:58:14;19.10;;;7.50;;
77602;SDS011;66771;52.434;17.056;2023-04-03T17:00:41;27.30;;;10.40;;
77602;SDS011;66771;52.434;17.056;2023-04-03T17:03:07;26.50;;;10.20;;
77602;SDS011;66771;52.434;17.056;2023-04-03T17:05:34;21.30;;;7.90;;
77602;SDS011;66771;52.434;17.056;2023-04-03T17:08:00;39.30;;;11.50;;
77602;SDS011;66771;52.434;17.056;2023-04-03T17:10:27;29.20;;;8.10;;
77602;SDS011;66771;52.434;17.056;2023-04-03T17:12:54;29.80;;;10.20;;
77602;SDS011;66771;52.434;17.056;2023-04-03T17:15:20;26.50;;;11.00;;
77602;SDS011;66771;52.434;17.056;2023-04-03T17:17:47;23.20;;;10.40;;
77602;SDS011;66771;52.434;17.056;2023-04-03T17:20:14;10.90;;;5.10;;
77602;SDS011;66771;52.434;17.056;2023-04-03T17:22:41;8.60;;;3.90;;
77602;SDS011;66771;52.434;17.056;2023-04-03T17:25:07;9.90;;;3.60;;
77602;SDS011;66771;52.434;17.056;2023-04-03T17:27:33;3.80;;;2.60;;
77602;SDS011;66771;52.434;17.056;2023-04-03T17:29:59;5.20;;;2.30;;
77602;SDS011;66771;52.434;17.056;2023-04-03T17:32:25;6.80;;;2.50;;
77602;SDS011;66771;52.434;17.056;2023-04-03T17:34:51;4.80;;;2.50;;
77602;SDS011;66771;52.434;17.056;2023-04-03T17:37:17;6.50;;;2.90;;
77602;SDS011;66771;52.434;17.056;2023-04-03T17:39:43;5.30;;;2.80;;
77602;SDS011;66771;52.434;17.056;2023-04-03T17:42:11;4.70;;;2.80;;
77602;SDS011;66771;52.434;17.056;2023-04-03T17:44:37;8.60;;;3.20;;
77602;SDS011;66771;52.434;17.056;2023-04-03T17:47:03;5.90;;;3.00;;
77602;SDS011;66771;52.434;17.056;2023-04-03T17:49:31;6.10;;;3.00;;
77602;SDS011;66771;52.434;17.056;2023-04-03T17:51:58;7.30;;;3.00;;
77602;SDS011;66771;52.434;17.056;2023-04-03T17:54:24;7.00;;;3.00;;
77602;SDS011;66771;52.434;17.056;2023-04-03T17:56:50;7.50;;;3.20;;
77602;SDS011;66771;52.434;17.056;2023-04-03T17:59:16;6.50;;;3.30;;
77602;SDS011;66771;52.434;17.056;2023-04-03T18:01:44;7.70;;;3.00;;
77602;SDS011;66771;52.434;17.056;2023-04-03T18:04:13;7.60;;;2.60;;
77602;SDS011;66771;52.434;17.056;2023-04-03T18:06:43;6.30;;;2.60;;
77602;SDS011;66771;52.434;17.056;2023-04-03T18:09:13;2.60;;;1.70;;
77602;SDS011;66771;52.434;17.056;2023-04-03T18:11:43;7.00;;;2.50;;
77602;SDS011;66771;52.434;17.056;2023-04-03T18:14:12;5.70;;;1.90;;
77602;SDS011;66771;52.434;17.056;2023-04-03T18:16:41;4.90;;;2.30;;
77602;SDS011;66771;52.434;17.056;2023-04-03T18:19:07;3.60;;;2.00;;
77602;SDS011;66771;52.434;17.056;2023-04-03T18:21:34;7.10;;;2.20;;
77602;SDS011;66771;52.434;17.056;2023-04-03T18:24:01;7.40;;;2.20;;
77602;SDS011;66771;52.434;17.056;2023-04-03T18:26:27;3.40;;;1.80;;
77602;SDS011;66771;52.434;17.056;2023-04-03T18:28:56;4.90;;;2.20;;
77602;SDS011;66771;52.434;17.056;2023-04-03T18:31:27;5.90;;;2.20;;
77602;SDS011;66771;52.434;17.056;2023-04-03T18:33:57;8.10;;;2.50;;
77602;SDS011;66771;52.434;17.056;2023-04-03T18:36:27;3.50;;;2.30;;
77602;SDS011;66771;52.434;17.056;2023-04-03T18:38:54;6.00;;;2.20;;
77602;SDS011;66771;52.434;17.056;2023-04-03T18:41:21;5.30;;;2.30;;
77602;SDS011;66771;52.434;17.056;2023-04-03T18:43:51;3.40;;;2.10;;
77602;SDS011;66771;52.434;17.056;2023-04-03T18:46:17;3.50;;;2.30;;
77602;SDS011;66771;52.434;17.056;2023-04-03T18:48:44;5.00;;;2.40;;
77602;SDS011;66771;52.434;17.056;2023-04-03T18:51:12;5.30;;;2.60;;
77602;SDS011;66771;52.434;17.056;2023-04-03T18:53:39;5.70;;;3.00;;
77602;SDS011;66771;52.434;17.056;2023-04-03T18:56:05;5.30;;;2.60;;
77602;SDS011;66771;52.434;17.056;2023-04-03T18:58:32;4.70;;;2.40;;
77602;SDS011;66771;52.434;17.056;2023-04-03T19:00:58;6.50;;;2.80;;
77602;SDS011;66771;52.434;17.056;2023-04-03T19:03:26;6.20;;;3.30;;
77602;SDS011;66771;52.434;17.056;2023-04-03T19:05:53;6.90;;;2.30;;
77602;SDS011;66771;52.434;17.056;2023-04-03T19:08:19;5.90;;;2.70;;
77602;SDS011;66771;52.434;17.056;2023-04-03T19:10:45;5.50;;;2.70;;
77602;SDS011;66771;52.434;17.056;2023-04-03T19:13:11;6.50;;;2.80;;
77602;SDS011;66771;52.434;17.056;2023-04-03T19:15:37;3.60;;;2.40;;
77602;SDS011;66771;52.434;17.056;2023-04-03T19:18:03;8.60;;;3.10;;
77602;SDS011;66771;52.434;17.056;2023-04-03T19:20:29;4.20;;;2.40;;
77602;SDS011;66771;52.434;17.056;2023-04-03T19:22:56;9.00;;;2.70;;
77602;SDS011;66771;52.434;17.056;2023-04-03T19:25:22;4.60;;;2.30;;